createdAt,value
2022-12-15T00:07:31.014Z,100610.0
2022-12-15T00:17:31.013Z,100600.0
2022-12-15T00:27:31.024Z,100610.0
2022-12-15T00:37:31.025Z,100610.0
2022-12-15T00:47:31.021Z,100630.0
2022-12-15T00:57:31.028Z,100620.0
2022-12-15T01:07:31.037Z,100630.0
2022-12-15T01:17:31.035Z,100640.0
2022-12-15T01:27:31.032Z,100650.0
2022-12-15T01:37:31.040Z,100660.0
2022-12-15T01:47:31.036Z,100650.0
2022-12-15T01:57:31.038Z,100650.0
2022-12-15T02:07:31.040Z,100650.0
2022-12-15T02:17:31.042Z,100680.0
2022-12-15T02:27:31.045Z,100700.0
2022-12-15T02:37:31.048Z,100690.0
2022-12-15T02:47:31.052Z,100680.0
2022-12-15T02:57:31.050Z,100700.0
2022-12-15T03:07:31.050Z,100700.0
2022-12-15T03:17:31.050Z,100700.0
2022-12-15T03:27:31.053Z,100710.0
2022-12-15T03:37:31.088Z,100720.0
2022-12-15T03:47:31.050Z,100720.0
2022-12-15T03:57:31.051Z,100730.0
2022-12-15T04:07:31.061Z,100730.0
2022-12-15T04:17:31.058Z,100720.0
2022-12-15T04:27:31.058Z,100720.0
2022-12-15T04:37:31.059Z,100720.0
2022-12-15T04:47:31.068Z,100730.0
2022-12-15T04:57:31.071Z,100730.0
2022-12-15T05:07:31.090Z,100750.0
2022-12-15T05:17:31.127Z,100760.0
2022-12-15T05:27:31.068Z,100760.0
2022-12-15T05:37:31.082Z,100760.0
2022-12-15T05:47:31.077Z,100770.0
2022-12-15T05:57:31.079Z,100780.0
2022-12-15T06:07:31.268Z,100780.0
2022-12-15T06:17:31.077Z,100800.0
2022-12-15T06:27:31.080Z,100810.0
2022-12-15T06:37:31.081Z,100800.0
2022-12-15T06:47:31.081Z,100810.0
2022-12-15T06:57:31.085Z,100820.0
2022-12-15T07:07:31.080Z,100810.0
2022-12-15T07:17:31.083Z,100830.0
2022-12-15T07:27:31.216Z,100840.0
2022-12-15T07:37:31.092Z,100840.0
2022-12-15T07:47:31.144Z,100840.0
2022-12-15T07:57:31.083Z,100850.0
2022-12-15T08:07:31.087Z,100860.0
2022-12-15T08:17:31.087Z,100880.0
2022-12-15T08:27:31.149Z,100880.0
2022-12-15T08:37:31.093Z,100880.0
2022-12-15T08:47:31.095Z,100880.0
2022-12-15T08:57:31.100Z,100890.0
2022-12-15T09:07:31.099Z,100890.0
2022-12-15T09:17:31.101Z,100890.0
2022-12-15T09:27:31.099Z,100910.0
2022-12-15T09:37:31.118Z,100910.0
2022-12-15T09:47:31.117Z,100930.0
2022-12-15T09:57:31.113Z,100930.0
2022-12-15T10:07:31.123Z,100940.0
2022-12-15T10:17:31.125Z,100940.0
2022-12-15T10:27:31.126Z,100920.0
2022-12-15T10:37:31.138Z,100940.0
2022-12-15T10:47:31.135Z,100940.0
2022-12-15T10:57:31.144Z,100940.0
2022-12-15T11:07:31.139Z,100940.0
2022-12-15T11:17:31.141Z,100930.0
2022-12-15T11:27:31.152Z,100920.0
2022-12-15T11:37:37.077Z,100910.0
2022-12-15T11:47:31.158Z,100930.0
2022-12-15T11:57:31.157Z,100900.0
2022-12-15T12:07:32.183Z,100900.0
2022-12-15T12:17:31.168Z,100890.0
2022-12-15T12:27:31.173Z,100890.0
2022-12-15T12:37:31.174Z,100870.0
2022-12-15T12:47:31.176Z,100880.0
2022-12-15T12:57:31.184Z,100870.0
2022-12-15T13:07:31.184Z,100860.0
2022-12-15T13:17:31.189Z,100840.0
2022-12-15T13:27:31.193Z,100830.0
2022-12-15T13:37:31.205Z,100830.0
2022-12-15T13:47:31.206Z,100830.0
2022-12-15T13:57:31.104Z,100830.0
2022-12-15T14:07:31.107Z,100820.0
2022-12-15T14:17:31.113Z,100820.0
2022-12-15T14:27:31.150Z,100820.0
2022-12-15T14:37:31.211Z,100800.0
2022-12-15T14:47:31.228Z,100780.0
2022-12-15T14:57:31.209Z,100790.0
2022-12-15T15:07:31.208Z,100780.0
2022-12-15T15:17:31.211Z,100780.0
2022-12-15T15:27:31.281Z,100780.0
2022-12-15T15:37:31.222Z,100780.0
2022-12-15T15:47:31.237Z,100790.0
2022-12-15T15:57:31.233Z,100780.0
2022-12-15T16:07:31.219Z,100790.0
2022-12-15T16:17:31.233Z,100800.0
2022-12-15T16:27:31.226Z,100790.0
2022-12-15T16:37:39.590Z,100790.0
2022-12-15T16:47:31.478Z,100800.0
2022-12-15T16:57:31.227Z,100790.0
2022-12-15T17:07:31.232Z,100820.0
2022-12-15T17:17:31.226Z,100830.0
2022-12-15T17:27:31.263Z,100830.0
2022-12-15T17:37:35.667Z,100850.0
2022-12-15T17:47:31.244Z,100860.0
2022-12-15T17:57:31.255Z,100880.0
2022-12-15T18:07:31.242Z,100860.0
2022-12-15T18:17:31.245Z,100890.0
2022-12-15T18:27:31.254Z,100880.0
2022-12-15T18:37:31.250Z,100880.0
2022-12-15T18:47:31.321Z,100900.0
2022-12-15T18:57:31.252Z,100900.0
2022-12-15T19:07:31.253Z,100900.0
2022-12-15T19:17:31.425Z,100890.0
2022-12-15T19:27:31.256Z,100900.0
2022-12-15T19:37:31.310Z,100900.0
2022-12-15T19:47:31.256Z,100900.0
2022-12-15T19:57:31.258Z,100880.0
2022-12-15T20:07:31.266Z,100880.0
2022-12-15T20:17:31.262Z,100890.0
2022-12-15T20:27:31.269Z,100890.0
2022-12-15T20:37:31.275Z,100880.0
2022-12-15T20:47:31.269Z,100870.0
2022-12-15T20:57:31.274Z,100890.0
2022-12-15T21:07:31.276Z,100890.0
2022-12-15T21:17:31.272Z,100900.0
2022-12-15T21:27:31.276Z,100900.0
2022-12-15T21:37:31.292Z,100890.0
2022-12-15T21:47:31.301Z,100880.0
2022-12-15T21:57:31.280Z,100890.0
2022-12-15T22:07:31.438Z,100910.0
2022-12-15T22:17:31.283Z,100920.0
2022-12-15T22:27:31.286Z,100920.0
2022-12-15T22:37:31.285Z,100910.0
2022-12-15T22:47:31.288Z,100920.0
2022-12-15T22:57:31.280Z,100940.0
2022-12-15T23:07:31.293Z,100930.0
2022-12-15T23:17:31.288Z,100930.0
2022-12-15T23:27:31.333Z,100930.0
2022-12-15T23:37:31.302Z,100930.0
2022-12-15T23:47:31.299Z,100930.0
2022-12-15T23:57:31.308Z,100940.0
